WetterOnline ( https://www.wetteronline.de )

Wetter aktuell Lichtenhain/Mittelndorf

Aktuelles Wetter: Lichtenhain/Mittelndorf (352m)

6-stündlich | Neueste Meldungen
Ortszeit Temperatur Wetter
Mo, 14.10. 20:00 17.5° C wolkenlos
Mo, 14.10. 14:00 19.9° C wolkenlos
Mo, 14.10. 8:00 13.0° C wolkenlos
Mo, 14.10. 2:00 14.4° C leicht bewölkt
So, 13.10. 20:00 18.2° C bedeckt
So, 13.10. 14:00 20.1° C wolkenlos
So, 13.10. 8:00 13.8° C bewölkt
So, 13.10. 2:00 16.5° C bedeckt
Ortszeit Temperatur Wetter
Di, 15.10. 0:00 15.3° C fast wolkenlos
Mo, 14.10. 23:50 15.3° C fast wolkenlos
Mo, 14.10. 23:40 15.4° C leicht bewölkt
Mo, 14.10. 23:30 15.7° C bewölkt
Mo, 14.10. 23:20 15.7° C bewölkt
Mo, 14.10. 23:10 16.1° C bedeckt
Mo, 14.10. 23:00 16.2° C bewölkt
Mo, 14.10. 22:30 16.1° C wolkenlos
Mo, 14.10. 22:00 16.5° C wolkenlos
Mo, 14.10. 21:30 16.9° C wolkenlos
Mo, 14.10. 21:00 17.1° C fast wolkenlos
Ortszeit Relative Feuchte Sichtweite
Mo, 14.10. 20:00 73% 17 km
Mo, 14.10. 14:00 63% 19 km
Mo, 14.10. 8:00 83% 12 km
Mo, 14.10. 2:00 74% 21 km
So, 13.10. 20:00 69% 30 km
So, 13.10. 14:00 60% 22 km
So, 13.10. 8:00 75% 26 km
So, 13.10. 2:00 70% 45 km
Ortszeit Relative Feuchte Sichtweite
Di, 15.10. 0:00 81% 11 km
Mo, 14.10. 23:50 81% -
Mo, 14.10. 23:40 80% -
Mo, 14.10. 23:30 79% 13 km
Mo, 14.10. 23:20 79% -
Mo, 14.10. 23:10 77% -
Mo, 14.10. 23:00 77% 14 km
Mo, 14.10. 22:30 79% 13 km
Mo, 14.10. 22:00 78% 13 km
Mo, 14.10. 21:30 77% 15 km
Mo, 14.10. 21:00 76% 18 km
Ortszeit Niederschlagsmenge Niederschlagsart
Mo, 14.10. 20:00 0.0 l/m2 in 12 Std. -
Mo, 14.10. 14:00 0.0 l/m2 in 6 Std. -
Mo, 14.10. 8:00 0.0 l/m2 in 12 Std. -
Mo, 14.10. 2:00 0.0 l/m2 in 6 Std. -
So, 13.10. 20:00 0.0 l/m2 in 12 Std. -
So, 13.10. 14:00 0.0 l/m2 in 6 Std. -
So, 13.10. 8:00 0.1 l/m2 in 12 Std. -
So, 13.10. 2:00 0.1 l/m2 in 6 Std. Regen
Ortszeit Niederschlagsmenge Niederschlagsart
Di, 15.10. 0:00 0.0 l/m2 in 1 Std. -
Mo, 14.10. 23:50 keine Meldung -
Mo, 14.10. 23:40 keine Meldung -
Mo, 14.10. 23:30 0.0 l/m2 in 1 Std. -
Mo, 14.10. 23:20 keine Meldung -
Mo, 14.10. 23:10 keine Meldung -
Mo, 14.10. 23:00 0.0 l/m2 in 1 Std. -
Mo, 14.10. 22:30 0.0 l/m2 in 1 Std. -
Mo, 14.10. 22:00 0.0 l/m2 in 1 Std. -
Mo, 14.10. 21:30 0.0 l/m2 in 1 Std. -
Mo, 14.10. 21:00 0.0 l/m2 in 1 Std. -
Ortszeit Stärke Spitze Richtung
km/h Bft. km/h Grad Sektor
Mo, 14.10. 20:00 14 3 32 130° SO
Mo, 14.10. 14:00 14 3 40 160° S
Mo, 14.10. 8:00 13 3 48 150° SO
Mo, 14.10. 2:00 17 3 50 140° SO
So, 13.10. 20:00 22 4 47 160° S
So, 13.10. 14:00 22 4 36 160° S
So, 13.10. 8:00 17 3 33 150° SO
So, 13.10. 2:00 15 3 31 150° SO
Ortszeit Stärke Spitze Richtung
km/h Bft. km/h Grad Sektor
Di, 15.10. 0:00 13 3 33 150° SO
Mo, 14.10. 23:50 13 3 - 150° SO
Mo, 14.10. 23:40 18 3 - 150° SO
Mo, 14.10. 23:30 20 4 33 150° SO
Mo, 14.10. 23:20 20 4 - 150° SO
Mo, 14.10. 23:10 18 3 - 150° SO
Mo, 14.10. 23:00 15 3 30 150° SO
Mo, 14.10. 22:30 7 2 18 130° SO
Mo, 14.10. 22:00 9 2 26 110° O
Mo, 14.10. 21:30 11 2 25 140° SO
Mo, 14.10. 21:00 11 2 25 150° SO
Ortszeit Untergrenze Bedeckung Gattung
total tief tief mittel hoch
Mo, 14.10. 20:00 - 0/8 0/8 - - -
Mo, 14.10. 14:00 - 0/8 0/8 - - -
Mo, 14.10. 8:00 - 0/8 0/8 - - -
Mo, 14.10. 2:00 4500 m 2/8 2/8 - - -
So, 13.10. 20:00 4200 m 8/8 8/8 - - -
So, 13.10. 14:00 - 0/8 0/8 - - -
So, 13.10. 8:00 1350 m 7/8 7/8 - - -
So, 13.10. 2:00 2700 m 8/8 8/8 - - -
Ortszeit Bedeckungsgrad in Achtel und Wolkenuntergrenze
Di, 15.10. 0:00 1(6300m)
Mo, 14.10. 23:50 1(6300m)
Mo, 14.10. 23:40 4(6300m)
Mo, 14.10. 23:30 7(5700m)
Mo, 14.10. 23:20 7(5700m)
Mo, 14.10. 23:10 8(5700m)
Mo, 14.10. 23:00 7(6000m)
Mo, 14.10. 22:30 2(6000m)
Mo, 14.10. 22:00 keine Wolken
Mo, 14.10. 21:30 keine Wolken
Mo, 14.10. 21:00 1(4500m)
Ortszeit Luftdruck NN (hPa) Tendenz (hPa in 3 Std.)
Mo, 14.10. 20:00 1015 - 0,3
Mo, 14.10. 14:00 1016 - 1,4
Mo, 14.10. 8:00 1018 + 0,7
Mo, 14.10. 2:00 1017 + 0,5
So, 13.10. 20:00 1015 - 0,2
So, 13.10. 14:00 1016 - 0,7
So, 13.10. 8:00 1016 + 0,3
So, 13.10. 2:00 1015 + 0,1
Ortszeit Luftdruck NN (hPa) Tendenz (hPa in 3 Std.)
Di, 15.10. 0:00 1013 - 1,7
Mo, 14.10. 23:50 1013 keine Meldung
Mo, 14.10. 23:40 1013 keine Meldung
Mo, 14.10. 23:30 1013 - 1,4
Mo, 14.10. 23:20 1013 keine Meldung
Mo, 14.10. 23:10 1013 keine Meldung
Mo, 14.10. 23:00 1014 - 1,1
Mo, 14.10. 22:30 1014 - 0,7
Mo, 14.10. 22:00 1014 - 0,8
Mo, 14.10. 21:30 1014 - 0,5
Mo, 14.10. 21:00 1014 - 0,4
Ortszeit Schneehöhe (cm)
Mo, 14.10. 20:00 0
Mo, 14.10. 14:00 0
Mo, 14.10. 8:00 0
Mo, 14.10. 2:00 0
So, 13.10. 20:00 0
So, 13.10. 14:00 0
So, 13.10. 8:00 0
So, 13.10. 2:00 0
Ortszeit Schneehöhe (cm)
Di, 15.10. 0:00 0
Mo, 14.10. 23:50 0
Mo, 14.10. 23:40 0
Mo, 14.10. 23:30 0
Mo, 14.10. 23:20 0
Mo, 14.10. 23:10 0
Mo, 14.10. 23:00 0
Mo, 14.10. 22:30 0
Mo, 14.10. 22:00 0
Mo, 14.10. 21:30 0
Mo, 14.10. 21:00 0
Link zu dieser Seite / Seite empfehlen

Das Wetter in ...